sensor_id;sensor_type;location;lat;lon;timestamp;pressure;altitude;pressure_sealevel;temperature;humidity
61014;BME280;46899;47.542;19.082;2023-05-11T00:00:20;100535.25;;;13.27;59.76
61014;BME280;46899;47.542;19.082;2023-05-11T00:03:23;100543.22;;;13.24;60.02
61014;BME280;46899;47.542;19.082;2023-05-11T00:06:26;100535.53;;;13.21;59.81
61014;BME280;46899;47.542;19.082;2023-05-11T00:09:28;100539.84;;;13.22;60.02
61014;BME280;46899;47.542;19.082;2023-05-11T00:12:31;100531.87;;;13.25;60.22
61014;BME280;46899;47.542;19.082;2023-05-11T00:15:33;100538.72;;;13.28;60.72
61014;BME280;46899;47.542;19.082;2023-05-11T00:18:36;100536.81;;;13.31;60.81
61014;BME280;46899;47.542;19.082;2023-05-11T00:21:39;100530.03;;;13.27;61.20
61014;BME280;46899;47.542;19.082;2023-05-11T00:24:41;100537.03;;;13.27;61.53
61014;BME280;46899;47.542;19.082;2023-05-11T00:27:44;100533.19;;;13.35;61.18
61014;BME280;46899;47.542;19.082;2023-05-11T00:30:47;100535.16;;;13.30;61.38
61014;BME280;46899;47.542;19.082;2023-05-11T00:33:50;100537.09;;;13.25;62.04
61014;BME280;46899;47.542;19.082;2023-05-11T00:36:53;100531.22;;;13.20;62.17
61014;BME280;46899;47.542;19.082;2023-05-11T00:39:55;100527.75;;;13.20;62.05
61014;BME280;46899;47.542;19.082;2023-05-11T00:42:58;100525.25;;;13.17;62.48
61014;BME280;46899;47.542;19.082;2023-05-11T00:46:01;100518.75;;;13.07;63.34
61014;BME280;46899;47.542;19.082;2023-05-11T00:49:04;100518.91;;;13.02;64.02
61014;BME280;46899;47.542;19.082;2023-05-11T00:52:07;100520.53;;;13.04;63.18
61014;BME280;46899;47.542;19.082;2023-05-11T00:55:10;100525.03;;;13.01;63.66
61014;BME280;46899;47.542;19.082;2023-05-11T00:58:14;100515.09;;;12.89;64.15
61014;BME280;46899;47.542;19.082;2023-05-11T01:01:17;100519.47;;;12.88;64.73
61014;BME280;46899;47.542;19.082;2023-05-11T01:04:20;100517.12;;;12.82;64.90
61014;BME280;46899;47.542;19.082;2023-05-11T01:07:37;100511.03;;;12.82;65.28
61014;BME280;46899;47.542;19.082;2023-05-11T01:13:45;100519.81;;;12.81;66.73
61014;BME280;46899;47.542;19.082;2023-05-11T01:16:51;100520.62;;;12.81;67.26
61014;BME280;46899;47.542;19.082;2023-05-11T01:19:57;100520.88;;;12.97;66.31
61014;BME280;46899;47.542;19.082;2023-05-11T01:26:23;100517.97;;;12.83;67.54
61014;BME280;46899;47.542;19.082;2023-05-11T01:32:46;100515.28;;;12.64;67.90
61014;BME280;46899;47.542;19.082;2023-05-11T01:35:49;100520.41;;;12.66;67.97
61014;BME280;46899;47.542;19.082;2023-05-11T01:38:54;100519.84;;;12.59;68.66
61014;BME280;46899;47.542;19.082;2023-05-11T01:42:00;100513.03;;;12.55;68.80
61014;BME280;46899;47.542;19.082;2023-05-11T01:45:06;100518.50;;;12.49;68.78
61014;BME280;46899;47.542;19.082;2023-05-11T01:48:12;100517.78;;;12.46;69.72
61014;BME280;46899;47.542;19.082;2023-05-11T01:51:15;100521.16;;;12.48;71.21
61014;BME280;46899;47.542;19.082;2023-05-11T01:54:19;100512.41;;;12.49;70.12
61014;BME280;46899;47.542;19.082;2023-05-11T01:57:22;100514.25;;;12.47;70.02
61014;BME280;46899;47.542;19.082;2023-05-11T02:00:25;100506.53;;;12.44;70.67
61014;BME280;46899;47.542;19.082;2023-05-11T02:03:28;100514.50;;;12.41;70.33
61014;BME280;46899;47.542;19.082;2023-05-11T02:06:32;100507.63;;;12.38;70.47
61014;BME280;46899;47.542;19.082;2023-05-11T02:09:35;100508.53;;;12.37;70.96
61014;BME280;46899;47.542;19.082;2023-05-11T02:12:39;100509.31;;;12.39;71.49
61014;BME280;46899;47.542;19.082;2023-05-11T02:15:42;100510.12;;;12.41;72.44
61014;BME280;46899;47.542;19.082;2023-05-11T02:18:46;100506.78;;;12.37;71.76
61014;BME280;46899;47.542;19.082;2023-05-11T02:21:49;100503.28;;;12.39;71.97
61014;BME280;46899;47.542;19.082;2023-05-11T02:24:53;100506.00;;;12.35;71.77
61014;BME280;46899;47.542;19.082;2023-05-11T02:27:57;100504.84;;;12.43;71.30
61014;BME280;46899;47.542;19.082;2023-05-11T02:31:00;100493.38;;;12.47;70.87
61014;BME280;46899;47.542;19.082;2023-05-11T02:34:09;100496.56;;;12.53;71.11
61014;BME280;46899;47.542;19.082;2023-05-11T02:37:21;100497.50;;;12.52;71.11
61014;BME280;46899;47.542;19.082;2023-05-11T02:40:29;100494.50;;;12.61;70.81
61014;BME280;46899;47.542;19.082;2023-05-11T02:43:34;100490.44;;;12.54;71.35
61014;BME280;46899;47.542;19.082;2023-05-11T02:46:38;100490.63;;;12.50;71.39
61014;BME280;46899;47.542;19.082;2023-05-11T02:49:42;100491.59;;;12.47;72.46
61014;BME280;46899;47.542;19.082;2023-05-11T02:52:46;100494.41;;;12.43;72.81
61014;BME280;46899;47.542;19.082;2023-05-11T02:55:49;100497.19;;;12.38;72.65
61014;BME280;46899;47.542;19.082;2023-05-11T02:58:53;100489.50;;;12.35;71.38
61014;BME280;46899;47.542;19.082;2023-05-11T03:01:55;100486.22;;;12.30;71.53
61014;BME280;46899;47.542;19.082;2023-05-11T03:04:58;100489.84;;;12.26;72.19
61014;BME280;46899;47.542;19.082;2023-05-11T03:08:01;100489.25;;;12.19;72.21
61014;BME280;46899;47.542;19.082;2023-05-11T03:11:04;100491.31;;;12.11;73.53
61014;BME280;46899;47.542;19.082;2023-05-11T03:14:07;100486.34;;;12.05;73.98
61014;BME280;46899;47.542;19.082;2023-05-11T03:17:10;100487.19;;;12.06;73.39
61014;BME280;46899;47.542;19.082;2023-05-11T03:20:14;100488.88;;;12.07;73.05
61014;BME280;46899;47.542;19.082;2023-05-11T03:23:19;100493.12;;;12.09;73.38
61014;BME280;46899;47.542;19.082;2023-05-11T03:26:22;100495.38;;;12.18;73.22
61014;BME280;46899;47.542;19.082;2023-05-11T03:29:25;100487.66;;;12.15;73.46
61014;BME280;46899;47.542;19.082;2023-05-11T03:32:27;100498.84;;;12.19;73.64
61014;BME280;46899;47.542;19.082;2023-05-11T03:35:32;100496.94;;;12.22;73.75
61014;BME280;46899;47.542;19.082;2023-05-11T03:38:35;100496.81;;;12.25;73.13
61014;BME280;46899;47.542;19.082;2023-05-11T03:41:39;100500.03;;;12.32;73.13
61014;BME280;46899;47.542;19.082;2023-05-11T03:44:43;100504.06;;;12.41;72.27
61014;BME280;46899;47.542;19.082;2023-05-11T03:47:48;100508.03;;;12.27;74.01
61014;BME280;46899;47.542;19.082;2023-05-11T03:50:51;100505.22;;;12.33;73.19
61014;BME280;46899;47.542;19.082;2023-05-11T03:53:54;100507.06;;;12.30;73.74
61014;BME280;46899;47.542;19.082;2023-05-11T03:56:57;100509.50;;;12.34;73.31
61014;BME280;46899;47.542;19.082;2023-05-11T04:00:00;100511.94;;;12.39;73.12
61014;BME280;46899;47.542;19.082;2023-05-11T04:03:04;100509.28;;;12.41;73.05
61014;BME280;46899;47.542;19.082;2023-05-11T04:06:08;100515.28;;;12.43;72.79
61014;BME280;46899;47.542;19.082;2023-05-11T04:09:10;100514.50;;;12.41;72.95
61014;BME280;46899;47.542;19.082;2023-05-11T04:12:13;100513.81;;;12.35;73.75
61014;BME280;46899;47.542;19.082;2023-05-11T04:15:16;100514.87;;;12.31;74.79
61014;BME280;46899;47.542;19.082;2023-05-11T04:18:18;100520.72;;;12.36;73.66
61014;BME280;46899;47.542;19.082;2023-05-11T04:21:21;100520.12;;;12.30;74.63
61014;BME280;46899;47.542;19.082;2023-05-11T04:24:23;100523.16;;;12.19;75.62
61014;BME280;46899;47.542;19.082;2023-05-11T04:27:25;100526.78;;;12.15;76.06
61014;BME280;46899;47.542;19.082;2023-05-11T04:30:28;100530.44;;;12.11;76.90
61014;BME280;46899;47.542;19.082;2023-05-11T04:33:31;100534.50;;;12.18;76.57
61014;BME280;46899;47.542;19.082;2023-05-11T04:36:34;100538.47;;;12.28;76.71
61014;BME280;46899;47.542;19.082;2023-05-11T04:39:37;100536.06;;;12.46;76.23
61014;BME280;46899;47.542;19.082;2023-05-11T04:42:39;100543.13;;;12.64;72.53
61014;BME280;46899;47.542;19.082;2023-05-11T04:45:49;100545.78;;;12.84;71.52
61014;BME280;46899;47.542;19.082;2023-05-11T04:48:53;100544.72;;;13.10;70.25
61014;BME280;46899;47.542;19.082;2023-05-11T04:51:56;100541.28;;;13.29;69.21
61014;BME280;46899;47.542;19.082;2023-05-11T04:54:59;100543.34;;;13.41;65.66
61014;BME280;46899;47.542;19.082;2023-05-11T04:58:02;100546.22;;;13.55;64.87
61014;BME280;46899;47.542;19.082;2023-05-11T05:01:04;100551.28;;;13.79;59.13
61014;BME280;46899;47.542;19.082;2023-05-11T05:04:07;100549.00;;;13.90;57.51
61014;BME280;46899;47.542;19.082;2023-05-11T05:07:10;100555.53;;;14.00;57.21
61014;BME280;46899;47.542;19.082;2023-05-11T05:10:14;100552.22;;;13.78;55.97
61014;BME280;46899;47.542;19.082;2023-05-11T05:13:17;100557.28;;;13.99;55.92
61014;BME280;46899;47.542;19.082;2023-05-11T05:16:20;100554.97;;;14.12;55.72
61014;BME280;46899;47.542;19.082;2023-05-11T05:19:23;100553.09;;;14.15;55.09
61014;BME280;46899;47.542;19.082;2023-05-11T05:22:25;100551.53;;;14.30;54.41
61014;BME280;46899;47.542;19.082;2023-05-11T05:25:28;100559.00;;;14.19;53.61
61014;BME280;46899;47.542;19.082;2023-05-11T05:28:31;100559.78;;;14.21;53.28
61014;BME280;46899;47.542;19.082;2023-05-11T05:31:34;100567.50;;;14.24;54.10
61014;BME280;46899;47.542;19.082;2023-05-11T05:34:37;100562.84;;;14.49;53.17
61014;BME280;46899;47.542;19.082;2023-05-11T05:37:39;100562.87;;;14.66;53.45
61014;BME280;46899;47.542;19.082;2023-05-11T05:40:42;100561.88;;;14.69;53.07
61014;BME280;46899;47.542;19.082;2023-05-11T05:43:45;100566.28;;;14.68;51.72
61014;BME280;46899;47.542;19.082;2023-05-11T05:46:47;100564.31;;;14.90;51.11
61014;BME280;46899;47.542;19.082;2023-05-11T05:49:50;100568.44;;;14.77;51.00
61014;BME280;46899;47.542;19.082;2023-05-11T05:52:53;100576.78;;;14.85;51.42
61014;BME280;46899;47.542;19.082;2023-05-11T05:55:57;100575.94;;;14.85;51.17
61014;BME280;46899;47.542;19.082;2023-05-11T05:59:00;100573.22;;;14.86;52.66
61014;BME280;46899;47.542;19.082;2023-05-11T06:02:03;100570.62;;;15.03;50.66
61014;BME280;46899;47.542;19.082;2023-05-11T06:05:05;100576.50;;;15.26;50.38
61014;BME280;46899;47.542;19.082;2023-05-11T06:08:08;100575.09;;;15.36;50.08
61014;BME280;46899;47.542;19.082;2023-05-11T06:11:12;100575.72;;;15.41;50.40
61014;BME280;46899;47.542;19.082;2023-05-11T06:14:15;100575.87;;;15.88;49.41
61014;BME280;46899;47.542;19.082;2023-05-11T06:17:18;100574.44;;;16.15;48.72
61014;BME280;46899;47.542;19.082;2023-05-11T06:20:20;100576.81;;;16.66;46.88
61014;BME280;46899;47.542;19.082;2023-05-11T06:23:24;100571.47;;;16.68;46.59
61014;BME280;46899;47.542;19.082;2023-05-11T06:26:28;100575.84;;;16.53;47.16
61014;BME280;46899;47.542;19.082;2023-05-11T06:29:30;100584.12;;;16.77;46.87
61014;BME280;46899;47.542;19.082;2023-05-11T06:32:35;100580.28;;;16.98;46.33
61014;BME280;46899;47.542;19.082;2023-05-11T06:35:39;100580.47;;;17.09;46.17
61014;BME280;46899;47.542;19.082;2023-05-11T06:38:42;100584.84;;;17.54;45.48
61014;BME280;46899;47.542;19.082;2023-05-11T06:41:44;100577.44;;;17.89;44.69
61014;BME280;46899;47.542;19.082;2023-05-11T06:44:47;100583.09;;;18.11;44.46
61014;BME280;46899;47.542;19.082;2023-05-11T06:47:50;100577.56;;;18.42;43.76
61014;BME280;46899;47.542;19.082;2023-05-11T06:50:54;100575.25;;;18.78;42.66
61014;BME280;46899;47.542;19.082;2023-05-11T06:53:57;100574.41;;;19.56;41.21
61014;BME280;46899;47.542;19.082;2023-05-11T06:56:59;100579.87;;;19.91;39.76
61014;BME280;46899;47.542;19.082;2023-05-11T07:00:05;100578.72;;;22.18;36.16
61014;BME280;46899;47.542;19.082;2023-05-11T07:03:07;100578.91;;;24.45;31.36
61014;BME280;46899;47.542;19.082;2023-05-11T07:06:10;100575.06;;;25.26;30.19
61014;BME280;46899;47.542;19.082;2023-05-11T07:09:12;100572.37;;;24.09;31.91
61014;BME280;46899;47.542;19.082;2023-05-11T07:12:15;100567.25;;;27.42;27.31
61014;BME280;46899;47.542;19.082;2023-05-11T07:15:17;100564.97;;;29.06;24.87
61014;BME280;46899;47.542;19.082;2023-05-11T07:18:22;100567.06;;;26.82;26.93
61014;BME280;46899;47.542;19.082;2023-05-11T07:21:24;100564.53;;;25.43;29.72
61014;BME280;46899;47.542;19.082;2023-05-11T07:24:27;100564.78;;;23.84;30.85
61014;BME280;46899;47.542;19.082;2023-05-11T07:27:30;100563.28;;;22.34;33.38
61014;BME280;46899;47.542;19.082;2023-05-11T07:30:32;100562.63;;;22.64;32.95
61014;BME280;46899;47.542;19.082;2023-05-11T07:33:38;100558.09;;;24.20;31.24
61014;BME280;46899;47.542;19.082;2023-05-11T07:36:40;100556.06;;;26.85;26.96
61014;BME280;46899;47.542;19.082;2023-05-11T07:39:45;100560.25;;;28.26;24.89
61014;BME280;46899;47.542;19.082;2023-05-11T07:42:48;100553.53;;;27.19;26.17
61014;BME280;46899;47.542;19.082;2023-05-11T07:45:50;100562.75;;;26.54;27.09
61014;BME280;46899;47.542;19.082;2023-05-11T07:48:53;100555.94;;;29.39;23.38
61014;BME280;46899;47.542;19.082;2023-05-11T07:52:08;100553.94;;;30.74;21.63
61014;BME280;46899;47.542;19.082;2023-05-11T07:55:11;100558.03;;;30.31;22.33
61014;BME280;46899;47.542;19.082;2023-05-11T07:58:13;100558.78;;;30.17;21.87
61014;BME280;46899;47.542;19.082;2023-05-11T08:01:16;100553.97;;;32.80;19.80
61014;BME280;46899;47.542;19.082;2023-05-11T08:04:19;100544.00;;;28.77;23.00
61014;BME280;46899;47.542;19.082;2023-05-11T08:07:21;100557.06;;;31.53;20.97
61014;BME280;46899;47.542;19.082;2023-05-11T08:10:24;100557.78;;;32.85;20.26
61014;BME280;46899;47.542;19.082;2023-05-11T08:13:26;100557.81;;;33.55;19.32
61014;BME280;46899;47.542;19.082;2023-05-11T08:16:29;100543.81;;;33.52;19.05
61014;BME280;46899;47.542;19.082;2023-05-11T08:19:32;100543.13;;;33.43;19.13
61014;BME280;46899;47.542;19.082;2023-05-11T08:22:34;100545.72;;;34.74;17.61
61014;BME280;46899;47.542;19.082;2023-05-11T08:25:36;100544.50;;;33.88;18.53
61014;BME280;46899;47.542;19.082;2023-05-11T08:28:39;100534.06;;;33.23;18.51
61014;BME280;46899;47.542;19.082;2023-05-11T08:31:42;100526.56;;;33.74;18.34
61014;BME280;46899;47.542;19.082;2023-05-11T08:34:44;100531.44;;;33.92;17.98
61014;BME280;46899;47.542;19.082;2023-05-11T08:37:47;100535.09;;;32.80;18.92
61014;BME280;46899;47.542;19.082;2023-05-11T08:40:50;100521.34;;;32.03;19.13
61014;BME280;46899;47.542;19.082;2023-05-11T08:43:53;100528.41;;;34.55;17.34
61014;BME280;46899;47.542;19.082;2023-05-11T08:46:56;100540.22;;;34.48;17.35
61014;BME280;46899;47.542;19.082;2023-05-11T08:50:21;100523.47;;;34.91;17.03
61014;BME280;46899;47.542;19.082;2023-05-11T08:53:23;100508.66;;;32.69;18.97
61014;BME280;46899;47.542;19.082;2023-05-11T08:56:26;100509.22;;;31.41;19.72
61014;BME280;46899;47.542;19.082;2023-05-11T08:59:30;100507.09;;;33.23;18.32
61014;BME280;46899;47.542;19.082;2023-05-11T09:02:35;100499.78;;;31.45;20.08
61014;BME280;46899;47.542;19.082;2023-05-11T09:05:38;100504.06;;;30.49;20.56
61014;BME280;46899;47.542;19.082;2023-05-11T09:08:40;100501.97;;;30.81;20.46
61014;BME280;46899;47.542;19.082;2023-05-11T09:11:43;100492.34;;;31.47;20.40
61014;BME280;46899;47.542;19.082;2023-05-11T09:14:46;100493.00;;;30.13;21.31
61014;BME280;46899;47.542;19.082;2023-05-11T09:17:49;100483.78;;;26.07;26.03
61014;BME280;46899;47.542;19.082;2023-05-11T09:20:51;100483.25;;;25.20;27.67
61014;BME280;46899;47.542;19.082;2023-05-11T09:23:54;100476.50;;;25.16;28.34
61014;BME280;46899;47.542;19.082;2023-05-11T09:27:06;100476.81;;;24.46;29.04
61014;BME280;46899;47.542;19.082;2023-05-11T09:30:14;100478.31;;;24.10;29.23
61014;BME280;46899;47.542;19.082;2023-05-11T09:33:24;100468.97;;;23.86;29.86
61014;BME280;46899;47.542;19.082;2023-05-11T09:36:27;100471.50;;;22.42;32.15
61014;BME280;46899;47.542;19.082;2023-05-11T09:39:31;100466.56;;;22.81;31.70
61014;BME280;46899;47.542;19.082;2023-05-11T09:42:55;100468.13;;;23.04;31.72
61014;BME280;46899;47.542;19.082;2023-05-11T09:45:58;100457.56;;;23.13;31.20
61014;BME280;46899;47.542;19.082;2023-05-11T09:49:06;100465.91;;;22.88;31.99
61014;BME280;46899;47.542;19.082;2023-05-11T09:52:09;100457.50;;;22.20;32.46
61014;BME280;46899;47.542;19.082;2023-05-11T09:55:12;100457.63;;;22.18;32.78
61014;BME280;46899;47.542;19.082;2023-05-11T09:58:15;100459.84;;;22.97;31.27
61014;BME280;46899;47.542;19.082;2023-05-11T10:01:18;100462.53;;;23.28;30.54
61014;BME280;46899;47.542;19.082;2023-05-11T10:04:29;100448.75;;;22.92;31.80
61014;BME280;46899;47.542;19.082;2023-05-11T10:07:32;100449.00;;;22.89;31.07
61014;BME280;46899;47.542;19.082;2023-05-11T10:10:35;100451.19;;;22.32;31.63
61014;BME280;46899;47.542;19.082;2023-05-11T10:13:37;100445.97;;;21.99;32.43
61014;BME280;46899;47.542;19.082;2023-05-11T10:16:41;100446.97;;;22.29;31.75
61014;BME280;46899;47.542;19.082;2023-05-11T10:19:45;100433.63;;;22.52;31.83
61014;BME280;46899;47.542;19.082;2023-05-11T10:22:49;100440.56;;;21.89;30.90
61014;BME280;46899;47.542;19.082;2023-05-11T10:25:52;100434.38;;;22.42;30.81
61014;BME280;46899;47.542;19.082;2023-05-11T10:28:55;100448.78;;;22.29;30.11
61014;BME280;46899;47.542;19.082;2023-05-11T10:31:58;100437.22;;;22.30;30.06
61014;BME280;46899;47.542;19.082;2023-05-11T10:35:02;100433.97;;;22.58;30.46
61014;BME280;46899;47.542;19.082;2023-05-11T10:38:07;100431.22;;;23.01;29.82
61014;BME280;46899;47.542;19.082;2023-05-11T10:41:15;100426.19;;;22.77;28.70
61014;BME280;46899;47.542;19.082;2023-05-11T10:58:04;100410.59;;;22.63;29.50
61014;BME280;46899;47.542;19.082;2023-05-11T11:04:13;100403.56;;;23.54;28.30
61014;BME280;46899;47.542;19.082;2023-05-11T11:07:16;100405.09;;;23.27;28.67
61014;BME280;46899;47.542;19.082;2023-05-11T11:20:44;100393.44;;;22.04;29.57
61014;BME280;46899;47.542;19.082;2023-05-11T11:23:43;100399.59;;;22.57;29.30
61014;BME280;46899;47.542;19.082;2023-05-11T11:26:48;100390.13;;;22.43;29.02
61014;BME280;46899;47.542;19.082;2023-05-11T11:36:15;100389.25;;;22.95;28.33
61014;BME280;46899;47.542;19.082;2023-05-11T11:39:18;100386.72;;;22.63;28.58
61014;BME280;46899;47.542;19.082;2023-05-11T11:42:31;100381.31;;;22.74;28.97
61014;BME280;46899;47.542;19.082;2023-05-11T11:45:43;100381.09;;;23.07;29.11
61014;BME280;46899;47.542;19.082;2023-05-11T11:48:51;100385.78;;;21.78;29.61
61014;BME280;46899;47.542;19.082;2023-05-11T11:51:56;100372.25;;;22.56;29.08
61014;BME280;46899;47.542;19.082;2023-05-11T11:54:59;100379.59;;;22.84;28.94
61014;BME280;46899;47.542;19.082;2023-05-11T11:58:02;100378.50;;;22.55;29.58
61014;BME280;46899;47.542;19.082;2023-05-11T12:01:05;100371.34;;;22.87;29.55
61014;BME280;46899;47.542;19.082;2023-05-11T12:07:27;100374.38;;;23.34;28.41
61014;BME280;46899;47.542;19.082;2023-05-11T12:10:34;100367.47;;;23.22;28.53
61014;BME280;46899;47.542;19.082;2023-05-11T12:13:38;100379.13;;;22.79;29.51
61014;BME280;46899;47.542;19.082;2023-05-11T12:16:40;100361.25;;;22.08;31.16
61014;BME280;46899;47.542;19.082;2023-05-11T12:19:43;100362.44;;;22.36;30.93
61014;BME280;46899;47.542;19.082;2023-05-11T12:22:46;100363.22;;;22.47;30.34
61014;BME280;46899;47.542;19.082;2023-05-11T12:26:03;100358.66;;;21.97;31.09
61014;BME280;46899;47.542;19.082;2023-05-11T12:32:10;100362.13;;;22.50;30.47
61014;BME280;46899;47.542;19.082;2023-05-11T12:35:13;100354.09;;;22.20;29.83
61014;BME280;46899;47.542;19.082;2023-05-11T12:38:17;100342.53;;;22.41;29.61
61014;BME280;46899;47.542;19.082;2023-05-11T12:41:20;100351.69;;;22.69;29.39
61014;BME280;46899;47.542;19.082;2023-05-11T12:44:24;100347.00;;;22.09;30.57
61014;BME280;46899;47.542;19.082;2023-05-11T12:47:27;100343.28;;;22.12;31.23
61014;BME280;46899;47.542;19.082;2023-05-11T12:50:30;100347.78;;;22.00;30.76
61014;BME280;46899;47.542;19.082;2023-05-11T12:53:33;100338.13;;;22.31;30.80
61014;BME280;46899;47.542;19.082;2023-05-11T12:57:21;100335.03;;;21.94;30.58
61014;BME280;46899;47.542;19.082;2023-05-11T13:03:19;100327.56;;;22.52;29.23
61014;BME280;46899;47.542;19.082;2023-05-11T13:06:22;100324.84;;;22.42;30.20
61014;BME280;46899;47.542;19.082;2023-05-11T13:09:25;100318.47;;;22.54;30.61
61014;BME280;46899;47.542;19.082;2023-05-11T13:12:27;100318.59;;;22.53;29.79
61014;BME280;46899;47.542;19.082;2023-05-11T13:15:33;100321.09;;;22.44;30.01
61014;BME280;46899;47.542;19.082;2023-05-11T13:21:59;100310.59;;;22.22;29.97
61014;BME280;46899;47.542;19.082;2023-05-11T13:25:02;100310.66;;;22.73;29.34
61014;BME280;46899;47.542;19.082;2023-05-11T13:28:04;100298.72;;;22.47;30.28
61014;BME280;46899;47.542;19.082;2023-05-11T13:31:07;100300.50;;;22.58;29.96
61014;BME280;46899;47.542;19.082;2023-05-11T13:34:10;100307.28;;;22.71;29.31
61014;BME280;46899;47.542;19.082;2023-05-11T13:37:13;100289.06;;;22.16;29.69
61014;BME280;46899;47.542;19.082;2023-05-11T13:40:15;100288.59;;;22.31;30.21
61014;BME280;46899;47.542;19.082;2023-05-11T13:43:18;100294.69;;;21.91;29.56
61014;BME280;46899;47.542;19.082;2023-05-11T13:46:20;100280.75;;;21.77;29.72
61014;BME280;46899;47.542;19.082;2023-05-11T13:49:23;100269.94;;;21.69;29.61
61014;BME280;46899;47.542;19.082;2023-05-11T13:52:25;100269.97;;;22.01;29.19
61014;BME280;46899;47.542;19.082;2023-05-11T13:55:28;100280.16;;;21.85;30.05
61014;BME280;46899;47.542;19.082;2023-05-11T13:58:31;100275.59;;;22.08;29.69
61014;BME280;46899;47.542;19.082;2023-05-11T14:01:34;100261.94;;;21.92;29.94
61014;BME280;46899;47.542;19.082;2023-05-11T14:04:36;100261.94;;;22.12;29.17
61014;BME280;46899;47.542;19.082;2023-05-11T14:07:40;100261.09;;;21.59;29.13
61014;BME280;46899;47.542;19.082;2023-05-11T14:10:49;100259.62;;;21.66;28.92
61014;BME280;46899;47.542;19.082;2023-05-11T14:13:52;100263.03;;;21.57;28.92
61014;BME280;46899;47.542;19.082;2023-05-11T14:16:55;100270.38;;;21.54;29.09
61014;BME280;46899;47.542;19.082;2023-05-11T14:19:58;100256.75;;;21.58;29.18
61014;BME280;46899;47.542;19.082;2023-05-11T14:23:00;100247.16;;;21.78;29.54
61014;BME280;46899;47.542;19.082;2023-05-11T14:26:03;100252.12;;;21.71;28.84
61014;BME280;46899;47.542;19.082;2023-05-11T14:29:05;100255.94;;;21.90;28.52
61014;BME280;46899;47.542;19.082;2023-05-11T14:32:09;100249.44;;;21.83;28.33
61014;BME280;46899;47.542;19.082;2023-05-11T14:35:14;100250.31;;;21.72;28.73
61014;BME280;46899;47.542;19.082;2023-05-11T14:38:16;100246.97;;;21.27;29.20
61014;BME280;46899;47.542;19.082;2023-05-11T14:41:19;100245.88;;;21.41;28.92
61014;BME280;46899;47.542;19.082;2023-05-11T14:44:22;100243.09;;;21.42;28.72
61014;BME280;46899;47.542;19.082;2023-05-11T14:47:26;100234.59;;;21.59;28.75
61014;BME280;46899;47.542;19.082;2023-05-11T14:50:29;100246.78;;;21.83;29.10
61014;BME280;46899;47.542;19.082;2023-05-11T14:53:32;100237.41;;;21.78;29.48
61014;BME280;46899;47.542;19.082;2023-05-11T14:56:35;100236.56;;;21.78;29.20
61014;BME280;46899;47.542;19.082;2023-05-11T14:59:37;100244.25;;;21.49;29.91
61014;BME280;46899;47.542;19.082;2023-05-11T15:02:59;100242.88;;;21.66;29.69
61014;BME280;46899;47.542;19.082;2023-05-11T15:06:02;100243.25;;;21.61;29.94
61014;BME280;46899;47.542;19.082;2023-05-11T15:09:05;100246.19;;;21.47;30.23
61014;BME280;46899;47.542;19.082;2023-05-11T15:12:08;100248.84;;;21.47;30.36
61014;BME280;46899;47.542;19.082;2023-05-11T15:15:10;100238.56;;;21.11;30.51
61014;BME280;46899;47.542;19.082;2023-05-11T15:18:13;100240.00;;;21.26;30.80
61014;BME280;46899;47.542;19.082;2023-05-11T15:21:17;100245.62;;;21.33;30.64
61014;BME280;46899;47.542;19.082;2023-05-11T15:24:20;100246.87;;;20.95;30.59
61014;BME280;46899;47.542;19.082;2023-05-11T15:27:22;100247.97;;;20.93;30.77
61014;BME280;46899;47.542;19.082;2023-05-11T15:30:25;100241.47;;;20.86;30.99
61014;BME280;46899;47.542;19.082;2023-05-11T15:33:27;100248.22;;;20.68;31.45
61014;BME280;46899;47.542;19.082;2023-05-11T15:36:30;100255.66;;;20.63;31.56
61014;BME280;46899;47.542;19.082;2023-05-11T15:39:32;100256.69;;;20.38;32.16
61014;BME280;46899;47.542;19.082;2023-05-11T15:42:35;100256.47;;;20.41;32.33
61014;BME280;46899;47.542;19.082;2023-05-11T15:45:37;100255.62;;;20.40;32.36
61014;BME280;46899;47.542;19.082;2023-05-11T15:48:40;100257.41;;;20.40;32.61
61014;BME280;46899;47.542;19.082;2023-05-11T15:51:42;100260.41;;;20.24;32.94
61014;BME280;46899;47.542;19.082;2023-05-11T15:54:45;100251.94;;;20.19;33.02
61014;BME280;46899;47.542;19.082;2023-05-11T15:57:48;100260.09;;;20.16;33.42
61014;BME280;46899;47.542;19.082;2023-05-11T16:00:50;100262.38;;;20.10;33.60
61014;BME280;46899;47.542;19.082;2023-05-11T16:03:53;100260.22;;;20.04;33.89
61014;BME280;46899;47.542;19.082;2023-05-11T16:06:57;100260.28;;;19.91;34.20
61014;BME280;46899;47.542;19.082;2023-05-11T16:10:00;100262.53;;;19.85;34.59
61014;BME280;46899;47.542;19.082;2023-05-11T16:13:02;100261.81;;;19.83;34.87
61014;BME280;46899;47.542;19.082;2023-05-11T16:16:05;100259.59;;;19.76;35.25
61014;BME280;46899;47.542;19.082;2023-05-11T16:19:08;100257.31;;;19.72;35.46
61014;BME280;46899;47.542;19.082;2023-05-11T16:22:10;100267.66;;;19.75;35.51
61014;BME280;46899;47.542;19.082;2023-05-11T16:25:13;100272.66;;;19.67;35.90
61014;BME280;46899;47.542;19.082;2023-05-11T16:28:15;100270.19;;;19.53;36.06
61014;BME280;46899;47.542;19.082;2023-05-11T16:31:18;100275.41;;;19.42;36.33
61014;BME280;46899;47.542;19.082;2023-05-11T16:34:21;100269.41;;;19.40;36.38
61014;BME280;46899;47.542;19.082;2023-05-11T16:37:23;100267.94;;;19.23;36.62
61014;BME280;46899;47.542;19.082;2023-05-11T16:40:25;100272.88;;;19.28;36.93
61014;BME280;46899;47.542;19.082;2023-05-11T16:43:28;100273.69;;;19.17;37.38